sensor_id;sensor_type;location;lat;lon;timestamp;P1;durP1;ratioP1;P2;durP2;ratioP2
64932;SDS011;51446;53.850;10.662;2022-12-29T00:02:00;4.27;;;3.60;;
64932;SDS011;51446;53.850;10.662;2022-12-29T00:04:26;6.03;;;4.00;;
64932;SDS011;51446;53.850;10.662;2022-12-29T00:06:51;5.10;;;3.97;;
64932;SDS011;51446;53.850;10.662;2022-12-29T00:09:17;5.78;;;3.60;;
64932;SDS011;51446;53.850;10.662;2022-12-29T00:11:43;3.87;;;3.57;;
64932;SDS011;51446;53.850;10.662;2022-12-29T00:14:09;4.20;;;3.80;;
64932;SDS011;51446;53.850;10.662;2022-12-29T00:16:54;3.97;;;3.40;;
64932;SDS011;51446;53.850;10.662;2022-12-29T00:19:19;4.00;;;3.60;;
64932;SDS011;51446;53.850;10.662;2022-12-29T00:22:04;4.53;;;3.70;;
64932;SDS011;51446;53.850;10.662;2022-12-29T00:24:48;6.55;;;3.83;;
64932;SDS011;51446;53.850;10.662;2022-12-29T00:27:32;4.35;;;3.28;;
64932;SDS011;51446;53.850;10.662;2022-12-29T00:30:17;3.97;;;3.67;;
64932;SDS011;51446;53.850;10.662;2022-12-29T00:33:15;5.05;;;4.18;;
64932;SDS011;51446;53.850;10.662;2022-12-29T00:36:03;5.40;;;3.90;;
64932;SDS011;51446;53.850;10.662;2022-12-29T00:38:31;4.60;;;4.10;;
64932;SDS011;51446;53.850;10.662;2022-12-29T00:41:17;5.50;;;3.90;;
64932;SDS011;51446;53.850;10.662;2022-12-29T00:44:01;4.43;;;4.03;;
64932;SDS011;51446;53.850;10.662;2022-12-29T00:46:29;5.05;;;3.58;;
64932;SDS011;51446;53.850;10.662;2022-12-29T00:48:55;4.05;;;3.63;;
64932;SDS011;51446;53.850;10.662;2022-12-29T00:51:39;4.13;;;3.73;;
64932;SDS011;51446;53.850;10.662;2022-12-29T00:54:05;4.20;;;3.80;;
64932;SDS011;51446;53.850;10.662;2022-12-29T00:56:30;4.38;;;3.83;;
64932;SDS011;51446;53.850;10.662;2022-12-29T00:58:59;4.03;;;3.63;;
64932;SDS011;51446;53.850;10.662;2022-12-29T01:01:28;5.15;;;3.72;;
64932;SDS011;51446;53.850;10.662;2022-12-29T01:03:53;4.80;;;3.40;;
64932;SDS011;51446;53.850;10.662;2022-12-29T01:06:19;4.50;;;4.00;;
64932;SDS011;51446;53.850;10.662;2022-12-29T01:08:44;3.87;;;3.40;;
64932;SDS011;51446;53.850;10.662;2022-12-29T01:11:10;5.33;;;3.50;;
64932;SDS011;51446;53.850;10.662;2022-12-29T01:13:37;5.07;;;3.97;;
64932;SDS011;51446;53.850;10.662;2022-12-29T01:16:03;5.37;;;3.80;;
64932;SDS011;51446;53.850;10.662;2022-12-29T01:18:30;5.28;;;3.80;;
64932;SDS011;51446;53.850;10.662;2022-12-29T01:21:03;4.10;;;3.70;;
64932;SDS011;51446;53.850;10.662;2022-12-29T01:23:30;6.90;;;4.00;;
64932;SDS011;51446;53.850;10.662;2022-12-29T01:25:56;5.57;;;4.20;;
64932;SDS011;51446;53.850;10.662;2022-12-29T01:28:21;5.27;;;4.30;;
64932;SDS011;51446;53.850;10.662;2022-12-29T01:30:47;4.77;;;4.30;;
64932;SDS011;51446;53.850;10.662;2022-12-29T01:33:12;4.87;;;3.97;;
64932;SDS011;51446;53.850;10.662;2022-12-29T01:35:37;4.40;;;4.00;;
64932;SDS011;51446;53.850;10.662;2022-12-29T01:38:02;5.10;;;4.43;;
64932;SDS011;51446;53.850;10.662;2022-12-29T01:40:28;4.05;;;3.65;;
64932;SDS011;51446;53.850;10.662;2022-12-29T01:42:53;4.27;;;3.93;;
64932;SDS011;51446;53.850;10.662;2022-12-29T01:45:18;4.33;;;3.93;;
64932;SDS011;51446;53.850;10.662;2022-12-29T01:47:52;6.27;;;4.10;;
64932;SDS011;51446;53.850;10.662;2022-12-29T01:50:23;4.25;;;3.92;;
64932;SDS011;51446;53.850;10.662;2022-12-29T01:52:57;6.25;;;4.07;;
64932;SDS011;51446;53.850;10.662;2022-12-29T01:55:30;4.40;;;4.00;;
64932;SDS011;51446;53.850;10.662;2022-12-29T01:57:58;6.28;;;4.10;;
64932;SDS011;51446;53.850;10.662;2022-12-29T02:00:27;4.60;;;4.20;;
64932;SDS011;51446;53.850;10.662;2022-12-29T02:02:53;3.80;;;3.50;;
64932;SDS011;51446;53.850;10.662;2022-12-29T02:05:27;4.03;;;3.63;;
64932;SDS011;51446;53.850;10.662;2022-12-29T02:07:57;4.18;;;3.75;;
64932;SDS011;51446;53.850;10.662;2022-12-29T02:10:23;4.27;;;3.87;;
64932;SDS011;51446;53.850;10.662;2022-12-29T02:12:50;4.32;;;3.95;;
64932;SDS011;51446;53.850;10.662;2022-12-29T02:15:17;5.15;;;4.20;;
64932;SDS011;51446;53.850;10.662;2022-12-29T02:20:26;4.55;;;4.15;;
64932;SDS011;51446;53.850;10.662;2022-12-29T02:29:33;6.50;;;4.90;;
64932;SDS011;51446;53.850;10.662;2022-12-29T02:32:17;5.40;;;4.00;;
64932;SDS011;51446;53.850;10.662;2022-12-29T02:40:40;5.43;;;4.75;;
64932;SDS011;51446;53.850;10.662;2022-12-29T02:43:14;6.18;;;4.32;;
64932;SDS011;51446;53.850;10.662;2022-12-29T02:51:46;5.68;;;4.30;;
64932;SDS011;51446;53.850;10.662;2022-12-29T02:54:31;4.55;;;4.13;;
64932;SDS011;51446;53.850;10.662;2022-12-29T02:57:10;7.13;;;4.35;;
64932;SDS011;51446;53.850;10.662;2022-12-29T02:59:41;4.70;;;4.20;;
64932;SDS011;51446;53.850;10.662;2022-12-29T03:02:13;5.72;;;4.78;;
64932;SDS011;51446;53.850;10.662;2022-12-29T03:05:12;5.20;;;3.95;;
64932;SDS011;51446;53.850;10.662;2022-12-29T03:07:51;5.57;;;4.22;;
64932;SDS011;51446;53.850;10.662;2022-12-29T03:16:34;4.85;;;4.43;;
64932;SDS011;51446;53.850;10.662;2022-12-29T03:19:08;5.05;;;4.55;;
64932;SDS011;51446;53.850;10.662;2022-12-29T03:21:47;4.95;;;4.10;;
64932;SDS011;51446;53.850;10.662;2022-12-29T03:24:38;4.75;;;4.32;;
64932;SDS011;51446;53.850;10.662;2022-12-29T03:27:07;5.60;;;4.50;;
64932;SDS011;51446;53.850;10.662;2022-12-29T03:29:37;5.28;;;4.38;;
64932;SDS011;51446;53.850;10.662;2022-12-29T03:32:07;4.50;;;4.10;;
64932;SDS011;51446;53.850;10.662;2022-12-29T03:34:35;6.35;;;4.35;;
64932;SDS011;51446;53.850;10.662;2022-12-29T03:37:10;5.05;;;4.30;;
64932;SDS011;51446;53.850;10.662;2022-12-29T03:39:38;4.18;;;3.65;;
64932;SDS011;51446;53.850;10.662;2022-12-29T03:42:09;5.43;;;4.00;;
64932;SDS011;51446;53.850;10.662;2022-12-29T03:44:40;4.73;;;4.20;;
64932;SDS011;51446;53.850;10.662;2022-12-29T03:47:09;6.88;;;4.30;;
64932;SDS011;51446;53.850;10.662;2022-12-29T03:49:36;4.38;;;3.80;;
64932;SDS011;51446;53.850;10.662;2022-12-29T03:52:01;7.27;;;3.93;;
64932;SDS011;51446;53.850;10.662;2022-12-29T03:54:27;3.90;;;3.55;;
64932;SDS011;51446;53.850;10.662;2022-12-29T03:56:52;4.60;;;3.97;;
64932;SDS011;51446;53.850;10.662;2022-12-29T03:59:17;4.87;;;3.67;;
64932;SDS011;51446;53.850;10.662;2022-12-29T04:01:43;4.30;;;3.50;;
64932;SDS011;51446;53.850;10.662;2022-12-29T04:04:08;5.30;;;3.90;;
64932;SDS011;51446;53.850;10.662;2022-12-29T04:06:33;5.00;;;3.90;;
64932;SDS011;51446;53.850;10.662;2022-12-29T04:08:58;3.77;;;3.47;;
64932;SDS011;51446;53.850;10.662;2022-12-29T04:11:24;4.90;;;3.73;;
64932;SDS011;51446;53.850;10.662;2022-12-29T04:13:49;3.83;;;3.53;;
64932;SDS011;51446;53.850;10.662;2022-12-29T04:16:14;4.53;;;4.10;;
64932;SDS011;51446;53.850;10.662;2022-12-29T04:18:40;4.00;;;3.60;;
64932;SDS011;51446;53.850;10.662;2022-12-29T04:21:05;3.53;;;3.23;;
64932;SDS011;51446;53.850;10.662;2022-12-29T04:23:31;3.90;;;3.30;;
64932;SDS011;51446;53.850;10.662;2022-12-29T04:25:58;3.95;;;3.55;;
64932;SDS011;51446;53.850;10.662;2022-12-29T04:28:23;4.23;;;3.83;;
64932;SDS011;51446;53.850;10.662;2022-12-29T04:30:49;4.38;;;3.55;;
64932;SDS011;51446;53.850;10.662;2022-12-29T04:33:15;3.50;;;3.20;;
64932;SDS011;51446;53.850;10.662;2022-12-29T04:35:40;3.13;;;2.70;;
64932;SDS011;51446;53.850;10.662;2022-12-29T04:38:07;3.40;;;3.10;;
64932;SDS011;51446;53.850;10.662;2022-12-29T04:40:32;3.07;;;2.87;;
64932;SDS011;51446;53.850;10.662;2022-12-29T04:42:57;2.80;;;2.60;;
64932;SDS011;51446;53.850;10.662;2022-12-29T04:45:22;2.80;;;2.60;;
64932;SDS011;51446;53.850;10.662;2022-12-29T04:47:48;3.05;;;2.65;;
64932;SDS011;51446;53.850;10.662;2022-12-29T04:50:13;2.80;;;2.60;;
64932;SDS011;51446;53.850;10.662;2022-12-29T04:52:38;2.97;;;2.70;;
64932;SDS011;51446;53.850;10.662;2022-12-29T04:55:04;2.70;;;2.50;;
64932;SDS011;51446;53.850;10.662;2022-12-29T04:57:30;2.70;;;2.50;;
64932;SDS011;51446;53.850;10.662;2022-12-29T04:59:55;3.78;;;2.75;;
64932;SDS011;51446;53.850;10.662;2022-12-29T05:02:21;2.53;;;2.33;;
64932;SDS011;51446;53.850;10.662;2022-12-29T05:04:46;3.23;;;2.13;;
64932;SDS011;51446;53.850;10.662;2022-12-29T05:07:12;2.55;;;2.35;;
64932;SDS011;51446;53.850;10.662;2022-12-29T05:09:38;2.50;;;2.30;;
64932;SDS011;51446;53.850;10.662;2022-12-29T05:12:03;2.73;;;2.50;;
64932;SDS011;51446;53.850;10.662;2022-12-29T05:14:28;2.78;;;2.15;;
64932;SDS011;51446;53.850;10.662;2022-12-29T05:16:54;2.20;;;2.00;;
64932;SDS011;51446;53.850;10.662;2022-12-29T05:19:19;2.40;;;2.10;;
64932;SDS011;51446;53.850;10.662;2022-12-29T05:21:44;2.30;;;2.10;;
64932;SDS011;51446;53.850;10.662;2022-12-29T05:24:10;2.43;;;2.17;;
64932;SDS011;51446;53.850;10.662;2022-12-29T05:26:35;2.33;;;2.13;;
64932;SDS011;51446;53.850;10.662;2022-12-29T05:29:00;2.60;;;2.40;;
64932;SDS011;51446;53.850;10.662;2022-12-29T05:31:26;2.77;;;2.57;;
64932;SDS011;51446;53.850;10.662;2022-12-29T05:33:51;4.97;;;2.57;;
64932;SDS011;51446;53.850;10.662;2022-12-29T05:36:16;2.63;;;2.43;;
64932;SDS011;51446;53.850;10.662;2022-12-29T05:38:42;2.50;;;2.30;;
64932;SDS011;51446;53.850;10.662;2022-12-29T05:41:07;2.30;;;2.10;;
64932;SDS011;51446;53.850;10.662;2022-12-29T05:43:32;2.87;;;2.53;;
64932;SDS011;51446;53.850;10.662;2022-12-29T05:45:58;3.37;;;2.67;;
64932;SDS011;51446;53.850;10.662;2022-12-29T05:48:23;3.63;;;2.83;;
64932;SDS011;51446;53.850;10.662;2022-12-29T05:50:49;3.10;;;2.90;;
64932;SDS011;51446;53.850;10.662;2022-12-29T05:53:14;3.17;;;2.80;;
64932;SDS011;51446;53.850;10.662;2022-12-29T05:55:40;4.70;;;2.80;;
64932;SDS011;51446;53.850;10.662;2022-12-29T05:58:05;3.83;;;2.73;;
64932;SDS011;51446;53.850;10.662;2022-12-29T06:00:30;2.70;;;2.40;;
64932;SDS011;51446;53.850;10.662;2022-12-29T06:02:55;2.80;;;2.50;;
64932;SDS011;51446;53.850;10.662;2022-12-29T06:05:21;4.40;;;2.40;;
64932;SDS011;51446;53.850;10.662;2022-12-29T06:07:46;2.47;;;2.27;;
64932;SDS011;51446;53.850;10.662;2022-12-29T06:10:11;2.80;;;2.60;;
64932;SDS011;51446;53.850;10.662;2022-12-29T06:12:36;2.47;;;2.27;;
64932;SDS011;51446;53.850;10.662;2022-12-29T06:15:02;2.57;;;2.37;;
64932;SDS011;51446;53.850;10.662;2022-12-29T06:17:27;3.75;;;2.72;;
64932;SDS011;51446;53.850;10.662;2022-12-29T06:19:53;2.70;;;2.50;;
64932;SDS011;51446;53.850;10.662;2022-12-29T06:22:18;2.83;;;2.57;;
64932;SDS011;51446;53.850;10.662;2022-12-29T06:24:43;2.80;;;2.47;;
64932;SDS011;51446;53.850;10.662;2022-12-29T06:27:09;2.83;;;2.63;;
64932;SDS011;51446;53.850;10.662;2022-12-29T06:29:34;2.70;;;2.50;;
64932;SDS011;51446;53.850;10.662;2022-12-29T06:32:01;2.70;;;2.50;;
64932;SDS011;51446;53.850;10.662;2022-12-29T06:34:27;3.50;;;2.60;;
64932;SDS011;51446;53.850;10.662;2022-12-29T06:36:52;3.13;;;2.83;;
64932;SDS011;51446;53.850;10.662;2022-12-29T06:39:18;3.07;;;2.77;;
64932;SDS011;51446;53.850;10.662;2022-12-29T06:41:43;2.33;;;2.20;;
64932;SDS011;51446;53.850;10.662;2022-12-29T06:44:08;3.53;;;2.60;;
64932;SDS011;51446;53.850;10.662;2022-12-29T06:46:33;2.20;;;2.10;;
64932;SDS011;51446;53.850;10.662;2022-12-29T06:48:59;3.37;;;2.50;;
64932;SDS011;51446;53.850;10.662;2022-12-29T06:51:24;3.43;;;3.13;;
64932;SDS011;51446;53.850;10.662;2022-12-29T06:53:49;3.27;;;2.40;;
64932;SDS011;51446;53.850;10.662;2022-12-29T06:56:14;3.30;;;2.20;;
64932;SDS011;51446;53.850;10.662;2022-12-29T06:58:40;2.70;;;2.20;;
64932;SDS011;51446;53.850;10.662;2022-12-29T07:01:05;3.23;;;2.23;;
64932;SDS011;51446;53.850;10.662;2022-12-29T07:03:30;3.60;;;2.50;;
64932;SDS011;51446;53.850;10.662;2022-12-29T07:05:56;2.20;;;2.10;;
64932;SDS011;51446;53.850;10.662;2022-12-29T07:08:22;2.35;;;2.15;;
64932;SDS011;51446;53.850;10.662;2022-12-29T07:10:48;2.50;;;2.30;;
64932;SDS011;51446;53.850;10.662;2022-12-29T07:13:13;2.17;;;2.07;;
64932;SDS011;51446;53.850;10.662;2022-12-29T07:15:39;2.70;;;2.40;;
64932;SDS011;51446;53.850;10.662;2022-12-29T07:18:04;2.00;;;1.90;;
64932;SDS011;51446;53.850;10.662;2022-12-29T07:20:29;2.28;;;2.08;;
64932;SDS011;51446;53.850;10.662;2022-12-29T07:22:55;2.30;;;2.10;;
64932;SDS011;51446;53.850;10.662;2022-12-29T07:25:20;2.60;;;2.40;;
64932;SDS011;51446;53.850;10.662;2022-12-29T07:27:46;2.00;;;1.90;;
64932;SDS011;51446;53.850;10.662;2022-12-29T07:30:11;2.57;;;2.20;;
64932;SDS011;51446;53.850;10.662;2022-12-29T07:32:37;2.60;;;1.93;;
64932;SDS011;51446;53.850;10.662;2022-12-29T07:35:02;4.03;;;2.57;;
64932;SDS011;51446;53.850;10.662;2022-12-29T07:37:28;2.25;;;2.10;;
64932;SDS011;51446;53.850;10.662;2022-12-29T07:39:53;2.17;;;2.00;;
64932;SDS011;51446;53.850;10.662;2022-12-29T07:42:18;2.20;;;2.00;;
64932;SDS011;51446;53.850;10.662;2022-12-29T07:44:44;5.13;;;2.30;;
64932;SDS011;51446;53.850;10.662;2022-12-29T07:47:09;2.70;;;2.03;;
64932;SDS011;51446;53.850;10.662;2022-12-29T07:49:34;2.10;;;1.90;;
64932;SDS011;51446;53.850;10.662;2022-12-29T07:52:00;2.03;;;1.93;;
64932;SDS011;51446;53.850;10.662;2022-12-29T07:54:25;2.30;;;2.10;;
64932;SDS011;51446;53.850;10.662;2022-12-29T07:56:50;2.43;;;2.23;;
64932;SDS011;51446;53.850;10.662;2022-12-29T07:59:16;2.38;;;1.75;;
64932;SDS011;51446;53.850;10.662;2022-12-29T08:01:42;2.53;;;2.20;;
64932;SDS011;51446;53.850;10.662;2022-12-29T08:04:07;2.20;;;1.97;;
64932;SDS011;51446;53.850;10.662;2022-12-29T08:06:32;2.43;;;1.80;;
64932;SDS011;51446;53.850;10.662;2022-12-29T08:08:57;2.50;;;2.07;;
64932;SDS011;51446;53.850;10.662;2022-12-29T08:11:23;2.20;;;2.00;;
64932;SDS011;51446;53.850;10.662;2022-12-29T08:13:48;2.43;;;2.07;;
64932;SDS011;51446;53.850;10.662;2022-12-29T08:16:14;3.00;;;2.37;;
64932;SDS011;51446;53.850;10.662;2022-12-29T08:18:39;3.00;;;2.20;;
64932;SDS011;51446;53.850;10.662;2022-12-29T08:21:04;2.40;;;2.20;;
64932;SDS011;51446;53.850;10.662;2022-12-29T08:23:30;2.65;;;2.17;;
64932;SDS011;51446;53.850;10.662;2022-12-29T08:25:59;3.45;;;2.17;;
64932;SDS011;51446;53.850;10.662;2022-12-29T08:28:26;2.67;;;2.30;;
64932;SDS011;51446;53.850;10.662;2022-12-29T08:30:51;2.30;;;2.20;;
64932;SDS011;51446;53.850;10.662;2022-12-29T08:33:16;2.55;;;2.10;;
64932;SDS011;51446;53.850;10.662;2022-12-29T08:35:42;2.30;;;2.10;;
64932;SDS011;51446;53.850;10.662;2022-12-29T08:38:07;2.97;;;2.00;;
64932;SDS011;51446;53.850;10.662;2022-12-29T08:40:32;2.63;;;2.10;;
64932;SDS011;51446;53.850;10.662;2022-12-29T08:42:58;2.43;;;2.30;;
64932;SDS011;51446;53.850;10.662;2022-12-29T08:45:23;2.40;;;2.20;;
64932;SDS011;51446;53.850;10.662;2022-12-29T08:47:48;2.50;;;2.20;;
64932;SDS011;51446;53.850;10.662;2022-12-29T08:50:14;3.53;;;2.50;;
64932;SDS011;51446;53.850;10.662;2022-12-29T08:52:39;4.17;;;2.40;;
64932;SDS011;51446;53.850;10.662;2022-12-29T08:55:04;3.40;;;2.27;;
64932;SDS011;51446;53.850;10.662;2022-12-29T08:57:30;2.67;;;2.00;;
64932;SDS011;51446;53.850;10.662;2022-12-29T08:59:55;3.38;;;2.05;;
64932;SDS011;51446;53.850;10.662;2022-12-29T09:02:21;3.25;;;1.92;;
64932;SDS011;51446;53.850;10.662;2022-12-29T09:04:46;4.37;;;1.80;;
64932;SDS011;51446;53.850;10.662;2022-12-29T09:07:11;2.70;;;1.60;;
64932;SDS011;51446;53.850;10.662;2022-12-29T09:09:36;2.27;;;1.60;;
64932;SDS011;51446;53.850;10.662;2022-12-29T09:12:02;1.73;;;1.50;;
64932;SDS011;51446;53.850;10.662;2022-12-29T09:14:27;1.60;;;1.50;;
64932;SDS011;51446;53.850;10.662;2022-12-29T09:16:53;1.87;;;1.53;;
64932;SDS011;51446;53.850;10.662;2022-12-29T09:19:37;1.80;;;1.55;;
64932;SDS011;51446;53.850;10.662;2022-12-29T09:22:02;1.60;;;1.50;;
64932;SDS011;51446;53.850;10.662;2022-12-29T09:24:28;1.70;;;1.60;;
64932;SDS011;51446;53.850;10.662;2022-12-29T09:26:53;1.80;;;1.70;;
64932;SDS011;51446;53.850;10.662;2022-12-29T09:29:18;1.70;;;1.60;;
64932;SDS011;51446;53.850;10.662;2022-12-29T09:31:43;2.27;;;1.83;;
64932;SDS011;51446;53.850;10.662;2022-12-29T09:34:09;2.70;;;1.80;;
64932;SDS011;51446;53.850;10.662;2022-12-29T09:36:34;2.17;;;1.90;;
64932;SDS011;51446;53.850;10.662;2022-12-29T09:38:59;4.53;;;2.10;;
64932;SDS011;51446;53.850;10.662;2022-12-29T09:41:34;2.55;;;2.10;;
64932;SDS011;51446;53.850;10.662;2022-12-29T09:44:18;2.55;;;2.15;;
64932;SDS011;51446;53.850;10.662;2022-12-29T09:46:51;6.38;;;2.90;;
64932;SDS011;51446;53.850;10.662;2022-12-29T09:52:21;3.58;;;1.95;;
64932;SDS011;51446;53.850;10.662;2022-12-29T09:55:03;3.53;;;2.65;;
64932;SDS011;51446;53.850;10.662;2022-12-29T09:57:36;2.50;;;2.00;;
64932;SDS011;51446;53.850;10.662;2022-12-29T10:00:16;3.88;;;2.00;;
64932;SDS011;51446;53.850;10.662;2022-12-29T10:02:44;4.28;;;3.00;;
64932;SDS011;51446;53.850;10.662;2022-12-29T10:05:22;5.32;;;3.28;;
64932;SDS011;51446;53.850;10.662;2022-12-29T10:10:59;5.72;;;2.92;;
64932;SDS011;51446;53.850;10.662;2022-12-29T10:16:37;4.45;;;1.90;;
64932;SDS011;51446;53.850;10.662;2022-12-29T10:22:09;7.97;;;3.00;;
64932;SDS011;51446;53.850;10.662;2022-12-29T10:24:54;2.80;;;1.90;;
64932;SDS011;51446;53.850;10.662;2022-12-29T10:27:27;4.50;;;2.10;;
64932;SDS011;51446;53.850;10.662;2022-12-29T10:29:57;5.43;;;2.00;;
64932;SDS011;51446;53.850;10.662;2022-12-29T10:32:29;2.38;;;1.38;;
64932;SDS011;51446;53.850;10.662;2022-12-29T10:34:56;5.13;;;1.88;;
64932;SDS011;51446;53.850;10.662;2022-12-29T10:37:31;2.97;;;1.38;;
64932;SDS011;51446;53.850;10.662;2022-12-29T10:39:58;3.20;;;1.70;;
64932;SDS011;51446;53.850;10.662;2022-12-29T10:44:54;2.92;;;1.50;;
64932;SDS011;51446;53.850;10.662;2022-12-29T10:47:25;4.13;;;1.93;;
64932;SDS011;51446;53.850;10.662;2022-12-29T10:49:54;5.05;;;1.80;;
64932;SDS011;51446;53.850;10.662;2022-12-29T10:52:20;3.92;;;1.50;;
64932;SDS011;51446;53.850;10.662;2022-12-29T10:54:53;2.80;;;1.38;;
64932;SDS011;51446;53.850;10.662;2022-12-29T10:57:38;4.93;;;2.03;;
64932;SDS011;51446;53.850;10.662;2022-12-29T11:00:12;5.97;;;2.00;;
64932;SDS011;51446;53.850;10.662;2022-12-29T11:08:03;4.47;;;1.38;;
64932;SDS011;51446;53.850;10.662;2022-12-29T11:10:36;4.95;;;1.30;;
64932;SDS011;51446;53.850;10.662;2022-12-29T11:13:12;5.80;;;1.33;;
64932;SDS011;51446;53.850;10.662;2022-12-29T11:15:49;6.10;;;1.05;;
64932;SDS011;51446;53.850;10.662;2022-12-29T11:18:19;3.30;;;1.35;;
64932;SDS011;51446;53.850;10.662;2022-12-29T11:21:00;3.15;;;0.90;;
64932;SDS011;51446;53.850;10.662;2022-12-29T11:26:33;4.53;;;1.30;;
64932;SDS011;51446;53.850;10.662;2022-12-29T11:29:08;7.13;;;1.75;;
64932;SDS011;51446;53.850;10.662;2022-12-29T11:31:41;4.68;;;1.15;;
64932;SDS011;51446;53.850;10.662;2022-12-29T11:34:20;1.98;;;0.90;;
64932;SDS011;51446;53.850;10.662;2022-12-29T11:37:00;7.20;;;1.45;;
64932;SDS011;51446;53.850;10.662;2022-12-29T11:41:57;6.22;;;1.80;;
64932;SDS011;51446;53.850;10.662;2022-12-29T11:44:23;6.15;;;1.58;;
64932;SDS011;51446;53.850;10.662;2022-12-29T11:46:49;6.30;;;1.53;;
64932;SDS011;51446;53.850;10.662;2022-12-29T11:49:21;5.13;;;1.90;;
64932;SDS011;51446;53.850;10.662;2022-12-29T11:51:48;6.22;;;1.70;;
64932;SDS011;51446;53.850;10.662;2022-12-29T11:54:50;6.00;;;1.65;;
64932;SDS011;51446;53.850;10.662;2022-12-29T11:57:12;8.85;;;1.75;;
64932;SDS011;51446;53.850;10.662;2022-12-29T11:59:41;8.02;;;1.92;;
64932;SDS011;51446;53.850;10.662;2022-12-29T12:02:54;6.30;;;2.35;;
64932;SDS011;51446;53.850;10.662;2022-12-29T12:05:09;5.63;;;1.63;;
64932;SDS011;51446;53.850;10.662;2022-12-29T12:07:57;3.63;;;1.63;;
64932;SDS011;51446;53.850;10.662;2022-12-29T12:10:27;5.47;;;1.65;;
64932;SDS011;51446;53.850;10.662;2022-12-29T12:15:57;6.55;;;1.90;;
64932;SDS011;51446;53.850;10.662;2022-12-29T12:29:35;5.88;;;2.05;;
64932;SDS011;51446;53.850;10.662;2022-12-29T12:32:09;3.45;;;1.73;;
64932;SDS011;51446;53.850;10.662;2022-12-29T12:34:42;3.80;;;1.40;;
64932;SDS011;51446;53.850;10.662;2022-12-29T12:42:49;2.25;;;1.30;;
64932;SDS011;51446;53.850;10.662;2022-12-29T12:48:25;2.88;;;1.40;;
64932;SDS011;51446;53.850;10.662;2022-12-29T12:59:56;3.40;;;1.50;;
64932;SDS011;51446;53.850;10.662;2022-12-29T13:13:46;6.93;;;1.60;;
64932;SDS011;51446;53.850;10.662;2022-12-29T13:16:27;4.82;;;1.70;;
64932;SDS011;51446;53.850;10.662;2022-12-29T13:27:34;3.45;;;1.90;;
64932;SDS011;51446;53.850;10.662;2022-12-29T13:30:10;3.97;;;1.92;;
64932;SDS011;51446;53.850;10.662;2022-12-29T13:38:12;5.80;;;1.90;;
64932;SDS011;51446;53.850;10.662;2022-12-29T13:40:55;7.00;;;1.75;;
64932;SDS011;51446;53.850;10.662;2022-12-29T13:43:24;7.60;;;2.28;;
64932;SDS011;51446;53.850;10.662;2022-12-29T13:46:03;6.55;;;2.10;;
64932;SDS011;51446;53.850;10.662;2022-12-29T13:51:36;5.05;;;2.35;;
64932;SDS011;51446;53.850;10.662;2022-12-29T13:54:58;4.90;;;2.53;;
64932;SDS011;51446;53.850;10.662;2022-12-29T13:57:39;4.07;;;2.00;;
64932;SDS011;51446;53.850;10.662;2022-12-29T14:00:15;5.32;;;2.00;;
64932;SDS011;51446;53.850;10.662;2022-12-29T14:05:27;10.40;;;2.40;;
64932;SDS011;51446;53.850;10.662;2022-12-29T14:08:04;10.30;;;2.40;;
64932;SDS011;51446;53.850;10.662;2022-12-29T14:10:38;5.15;;;2.17;;
64932;SDS011;51446;53.850;10.662;2022-12-29T14:13:21;6.97;;;1.90;;
64932;SDS011;51446;53.850;10.662;2022-12-29T14:15:59;4.20;;;2.00;;
64932;SDS011;51446;53.850;10.662;2022-12-29T14:18:34;4.45;;;1.90;;
64932;SDS011;51446;53.850;10.662;2022-12-29T14:21:10;4.68;;;1.70;;
64932;SDS011;51446;53.850;10.662;2022-12-29T14:23:49;4.45;;;1.75;;
64932;SDS011;51446;53.850;10.662;2022-12-29T14:26:16;12.73;;;2.92;;
64932;SDS011;51446;53.850;10.662;2022-12-29T14:29:15;7.82;;;3.22;;
64932;SDS011;51446;53.850;10.662;2022-12-29T14:32:01;5.22;;;2.30;;
64932;SDS011;51446;53.850;10.662;2022-12-29T14:34:27;6.60;;;2.40;;
64932;SDS011;51446;53.850;10.662;2022-12-29T14:39:29;4.47;;;2.25;;
64932;SDS011;51446;53.850;10.662;2022-12-29T14:44:34;5.95;;;2.55;;
64932;SDS011;51446;53.850;10.662;2022-12-29T14:47:15;5.07;;;2.13;;
64932;SDS011;51446;53.850;10.662;2022-12-29T14:49:45;5.13;;;2.20;;
64932;SDS011;51446;53.850;10.662;2022-12-29T14:52:15;5.70;;;2.10;;
64932;SDS011;51446;53.850;10.662;2022-12-29T14:54:46;4.68;;;2.38;;
64932;SDS011;51446;53.850;10.662;2022-12-29T14:57:33;5.88;;;3.15;;
64932;SDS011;51446;53.850;10.662;2022-12-29T15:00:06;5.78;;;2.40;;
64932;SDS011;51446;53.850;10.662;2022-12-29T15:02:59;7.55;;;2.45;;
64932;SDS011;51446;53.850;10.662;2022-12-29T15:06:15;7.28;;;2.53;;
64932;SDS011;51446;53.850;10.662;2022-12-29T15:08:20;7.60;;;2.35;;
64932;SDS011;51446;53.850;10.662;2022-12-29T15:10:53;3.88;;;2.13;;
64932;SDS011;51446;53.850;10.662;2022-12-29T15:13:22;7.43;;;2.55;;
64932;SDS011;51446;53.850;10.662;2022-12-29T15:15:50;7.10;;;2.50;;
64932;SDS011;51446;53.850;10.662;2022-12-29T15:18:25;6.78;;;2.60;;
64932;SDS011;51446;53.850;10.662;2022-12-29T15:20:58;5.68;;;2.70;;
64932;SDS011;51446;53.850;10.662;2022-12-29T15:23:26;8.15;;;2.72;;
64932;SDS011;51446;53.850;10.662;2022-12-29T15:25:59;7.07;;;2.40;;
64932;SDS011;51446;53.850;10.662;2022-12-29T15:28:36;7.72;;;2.40;;
64932;SDS011;51446;53.850;10.662;2022-12-29T15:31:09;7.47;;;2.42;;
64932;SDS011;51446;53.850;10.662;2022-12-29T15:33:38;4.35;;;2.40;;
64932;SDS011;51446;53.850;10.662;2022-12-29T15:36:09;7.03;;;2.17;;
64932;SDS011;51446;53.850;10.662;2022-12-29T15:38:37;4.72;;;2.65;;
64932;SDS011;51446;53.850;10.662;2022-12-29T15:41:07;7.13;;;2.83;;
64932;SDS011;51446;53.850;10.662;2022-12-29T15:46:30;5.70;;;2.53;;
64932;SDS011;51446;53.850;10.662;2022-12-29T15:48:56;7.13;;;2.23;;
64932;SDS011;51446;53.850;10.662;2022-12-29T15:51:28;8.00;;;2.40;;
64932;SDS011;51446;53.850;10.662;2022-12-29T15:53:58;9.25;;;2.83;;
64932;SDS011;51446;53.850;10.662;2022-12-29T15:56:23;6.23;;;2.30;;
64932;SDS011;51446;53.850;10.662;2022-12-29T15:58:50;5.70;;;2.63;;
64932;SDS011;51446;53.850;10.662;2022-12-29T16:04:08;9.20;;;3.33;;
64932;SDS011;51446;53.850;10.662;2022-12-29T16:06:35;5.75;;;2.20;;
64932;SDS011;51446;53.850;10.662;2022-12-29T16:09:18;6.87;;;2.47;;
64932;SDS011;51446;53.850;10.662;2022-12-29T16:11:53;8.23;;;2.50;;
64932;SDS011;51446;53.850;10.662;2022-12-29T16:14:28;8.13;;;2.60;;
64932;SDS011;51446;53.850;10.662;2022-12-29T16:16:58;7.07;;;2.60;;
64932;SDS011;51446;53.850;10.662;2022-12-29T16:21:56;6.83;;;2.30;;
64932;SDS011;51446;53.850;10.662;2022-12-29T16:24:24;6.70;;;2.50;;
64932;SDS011;51446;53.850;10.662;2022-12-29T16:26:59;7.47;;;2.45;;
64932;SDS011;51446;53.850;10.662;2022-12-29T16:29:31;7.57;;;2.20;;
64932;SDS011;51446;53.850;10.662;2022-12-29T16:31:58;5.57;;;2.58;;
64932;SDS011;51446;53.850;10.662;2022-12-29T16:34:31;8.27;;;2.47;;
64932;SDS011;51446;53.850;10.662;2022-12-29T16:37:01;6.50;;;2.55;;
64932;SDS011;51446;53.850;10.662;2022-12-29T16:39:35;9.52;;;2.55;;
64932;SDS011;51446;53.850;10.662;2022-12-29T16:47:43;9.77;;;2.40;;
64932;SDS011;51446;53.850;10.662;2022-12-29T16:50:11;8.95;;;2.47;;
64932;SDS011;51446;53.850;10.662;2022-12-29T16:52:41;9.32;;;2.88;;
64932;SDS011;51446;53.850;10.662;2022-12-29T16:55:14;6.67;;;2.87;;
64932;SDS011;51446;53.850;10.662;2022-12-29T16:57:41;9.85;;;2.65;;
64932;SDS011;51446;53.850;10.662;2022-12-29T17:00:19;7.78;;;2.97;;
64932;SDS011;51446;53.850;10.662;2022-12-29T17:02:46;9.10;;;3.20;;
64932;SDS011;51446;53.850;10.662;2022-12-29T17:05:14;10.30;;;3.40;;